sensor_id;sensor_type;location;lat;lon;timestamp;P1;durP1;ratioP1;P2;durP2;ratioP2
70814;SDS011;58428;49.478;10.986;2022-12-19T00:00:45;29.05;;;13.23;;
70814;SDS011;58428;49.478;10.986;2022-12-19T00:03:12;29.80;;;12.55;;
70814;SDS011;58428;49.478;10.986;2022-12-19T00:05:39;30.40;;;12.70;;
70814;SDS011;58428;49.478;10.986;2022-12-19T00:08:06;36.20;;;13.43;;
70814;SDS011;58428;49.478;10.986;2022-12-19T00:10:39;27.60;;;12.75;;
70814;SDS011;58428;49.478;10.986;2022-12-19T00:13:05;33.03;;;13.27;;
70814;SDS011;58428;49.478;10.986;2022-12-19T00:15:32;28.05;;;12.55;;
70814;SDS011;58428;49.478;10.986;2022-12-19T00:17:58;30.63;;;12.35;;
70814;SDS011;58428;49.478;10.986;2022-12-19T00:20:23;29.73;;;12.00;;
70814;SDS011;58428;49.478;10.986;2022-12-19T00:22:49;30.13;;;12.52;;
70814;SDS011;58428;49.478;10.986;2022-12-19T00:25:14;29.75;;;12.63;;
70814;SDS011;58428;49.478;10.986;2022-12-19T00:27:40;28.88;;;12.13;;
70814;SDS011;58428;49.478;10.986;2022-12-19T00:30:05;32.35;;;13.18;;
70814;SDS011;58428;49.478;10.986;2022-12-19T00:32:31;29.75;;;13.38;;
70814;SDS011;58428;49.478;10.986;2022-12-19T00:34:56;31.38;;;13.20;;
70814;SDS011;58428;49.478;10.986;2022-12-19T00:37:22;31.88;;;12.98;;
70814;SDS011;58428;49.478;10.986;2022-12-19T00:39:47;28.73;;;12.55;;
70814;SDS011;58428;49.478;10.986;2022-12-19T00:42:13;32.92;;;13.57;;
70814;SDS011;58428;49.478;10.986;2022-12-19T00:44:38;32.00;;;13.32;;
70814;SDS011;58428;49.478;10.986;2022-12-19T00:47:04;32.05;;;13.05;;
70814;SDS011;58428;49.478;10.986;2022-12-19T00:49:34;31.63;;;12.52;;
70814;SDS011;58428;49.478;10.986;2022-12-19T00:52:03;29.88;;;12.88;;
70814;SDS011;58428;49.478;10.986;2022-12-19T00:54:28;26.58;;;11.80;;
70814;SDS011;58428;49.478;10.986;2022-12-19T00:56:55;32.00;;;13.70;;
70814;SDS011;58428;49.478;10.986;2022-12-19T00:59:21;30.75;;;12.93;;
70814;SDS011;58428;49.478;10.986;2022-12-19T01:01:46;29.30;;;12.60;;
70814;SDS011;58428;49.478;10.986;2022-12-19T01:04:12;31.30;;;13.55;;
70814;SDS011;58428;49.478;10.986;2022-12-19T01:06:39;28.33;;;12.25;;
70814;SDS011;58428;49.478;10.986;2022-12-19T01:09:07;29.92;;;12.45;;
70814;SDS011;58428;49.478;10.986;2022-12-19T01:11:34;33.03;;;13.15;;
70814;SDS011;58428;49.478;10.986;2022-12-19T01:14:18;30.60;;;12.65;;
70814;SDS011;58428;49.478;10.986;2022-12-19T01:16:44;31.63;;;12.32;;
70814;SDS011;58428;49.478;10.986;2022-12-19T01:19:09;30.55;;;12.55;;
70814;SDS011;58428;49.478;10.986;2022-12-19T01:21:35;29.58;;;12.10;;
70814;SDS011;58428;49.478;10.986;2022-12-19T01:24:02;32.35;;;13.02;;
70814;SDS011;58428;49.478;10.986;2022-12-19T01:26:28;33.72;;;12.90;;
70814;SDS011;58428;49.478;10.986;2022-12-19T01:28:54;27.85;;;11.80;;
70814;SDS011;58428;49.478;10.986;2022-12-19T01:31:20;28.08;;;12.30;;
70814;SDS011;58428;49.478;10.986;2022-12-19T01:33:47;30.35;;;12.40;;
70814;SDS011;58428;49.478;10.986;2022-12-19T01:36:12;30.27;;;12.30;;
70814;SDS011;58428;49.478;10.986;2022-12-19T01:38:39;30.52;;;12.70;;
70814;SDS011;58428;49.478;10.986;2022-12-19T01:41:05;32.25;;;13.23;;
70814;SDS011;58428;49.478;10.986;2022-12-19T01:43:51;30.05;;;11.85;;
70814;SDS011;58428;49.478;10.986;2022-12-19T01:46:23;29.55;;;13.20;;
70814;SDS011;58428;49.478;10.986;2022-12-19T01:48:51;30.05;;;12.43;;
70814;SDS011;58428;49.478;10.986;2022-12-19T01:51:19;29.80;;;13.02;;
70814;SDS011;58428;49.478;10.986;2022-12-19T01:53:51;31.17;;;12.00;;
70814;SDS011;58428;49.478;10.986;2022-12-19T01:56:25;30.13;;;12.70;;
70814;SDS011;58428;49.478;10.986;2022-12-19T01:58:53;32.88;;;13.02;;
70814;SDS011;58428;49.478;10.986;2022-12-19T02:01:22;30.85;;;13.20;;
70814;SDS011;58428;49.478;10.986;2022-12-19T02:03:48;32.22;;;12.38;;
70814;SDS011;58428;49.478;10.986;2022-12-19T02:06:14;33.78;;;13.23;;
70814;SDS011;58428;49.478;10.986;2022-12-19T02:08:40;33.72;;;13.23;;
70814;SDS011;58428;49.478;10.986;2022-12-19T02:11:08;32.58;;;13.95;;
70814;SDS011;58428;49.478;10.986;2022-12-19T02:13:34;30.00;;;12.45;;
70814;SDS011;58428;49.478;10.986;2022-12-19T02:21:21;29.52;;;12.48;;
70814;SDS011;58428;49.478;10.986;2022-12-19T02:24:38;34.72;;;13.70;;
70814;SDS011;58428;49.478;10.986;2022-12-19T02:28:11;36.80;;;13.90;;
70814;SDS011;58428;49.478;10.986;2022-12-19T02:39:21;35.05;;;13.68;;
70814;SDS011;58428;49.478;10.986;2022-12-19T02:41:57;32.72;;;12.38;;
70814;SDS011;58428;49.478;10.986;2022-12-19T02:44:34;36.05;;;13.68;;
70814;SDS011;58428;49.478;10.986;2022-12-19T02:47:07;33.65;;;13.60;;
70814;SDS011;58428;49.478;10.986;2022-12-19T02:54:45;36.88;;;13.82;;
70814;SDS011;58428;49.478;10.986;2022-12-19T02:57:18;34.05;;;12.82;;
70814;SDS011;58428;49.478;10.986;2022-12-19T03:02:33;34.38;;;12.80;;
70814;SDS011;58428;49.478;10.986;2022-12-19T03:05:27;35.15;;;14.20;;
70814;SDS011;58428;49.478;10.986;2022-12-19T03:07:56;29.75;;;12.25;;
70814;SDS011;58428;49.478;10.986;2022-12-19T03:10:44;33.67;;;13.07;;
70814;SDS011;58428;49.478;10.986;2022-12-19T03:13:30;31.48;;;12.30;;
70814;SDS011;58428;49.478;10.986;2022-12-19T03:15:59;34.05;;;13.13;;
70814;SDS011;58428;49.478;10.986;2022-12-19T03:18:26;32.95;;;13.20;;
70814;SDS011;58428;49.478;10.986;2022-12-19T03:23:39;37.25;;;12.85;;
70814;SDS011;58428;49.478;10.986;2022-12-19T03:26:11;31.90;;;13.48;;
70814;SDS011;58428;49.478;10.986;2022-12-19T03:31:15;36.42;;;12.45;;
70814;SDS011;58428;49.478;10.986;2022-12-19T03:33:46;36.05;;;13.40;;
70814;SDS011;58428;49.478;10.986;2022-12-19T03:36:17;34.80;;;14.13;;
70814;SDS011;58428;49.478;10.986;2022-12-19T03:38:46;32.65;;;12.63;;
70814;SDS011;58428;49.478;10.986;2022-12-19T03:44:01;31.55;;;12.70;;
70814;SDS011;58428;49.478;10.986;2022-12-19T03:46:28;33.55;;;13.13;;
70814;SDS011;58428;49.478;10.986;2022-12-19T03:48:54;32.35;;;12.85;;
70814;SDS011;58428;49.478;10.986;2022-12-19T03:59:55;36.60;;;14.05;;
70814;SDS011;58428;49.478;10.986;2022-12-19T04:02:26;33.25;;;12.52;;
70814;SDS011;58428;49.478;10.986;2022-12-19T04:04:54;35.97;;;12.90;;
70814;SDS011;58428;49.478;10.986;2022-12-19T04:07:24;33.17;;;12.98;;
70814;SDS011;58428;49.478;10.986;2022-12-19T04:09:50;33.90;;;13.25;;
70814;SDS011;58428;49.478;10.986;2022-12-19T04:12:21;33.53;;;12.85;;
70814;SDS011;58428;49.478;10.986;2022-12-19T04:14:52;32.28;;;13.27;;
70814;SDS011;58428;49.478;10.986;2022-12-19T04:17:22;30.85;;;13.23;;
70814;SDS011;58428;49.478;10.986;2022-12-19T04:19:57;33.75;;;13.90;;
70814;SDS011;58428;49.478;10.986;2022-12-19T04:25:04;32.35;;;13.32;;
70814;SDS011;58428;49.478;10.986;2022-12-19T04:27:34;34.45;;;13.45;;
70814;SDS011;58428;49.478;10.986;2022-12-19T04:30:03;34.38;;;13.65;;
70814;SDS011;58428;49.478;10.986;2022-12-19T04:32:31;29.48;;;12.45;;
70814;SDS011;58428;49.478;10.986;2022-12-19T04:35:00;30.48;;;11.82;;
70814;SDS011;58428;49.478;10.986;2022-12-19T04:37:27;33.80;;;12.57;;
70814;SDS011;58428;49.478;10.986;2022-12-19T04:39:54;35.63;;;13.18;;
70814;SDS011;58428;49.478;10.986;2022-12-19T04:42:20;34.40;;;13.43;;
70814;SDS011;58428;49.478;10.986;2022-12-19T04:44:46;36.35;;;13.57;;
70814;SDS011;58428;49.478;10.986;2022-12-19T04:47:11;33.15;;;13.93;;
70814;SDS011;58428;49.478;10.986;2022-12-19T04:49:36;33.88;;;13.02;;
70814;SDS011;58428;49.478;10.986;2022-12-19T04:52:03;39.45;;;14.77;;
70814;SDS011;58428;49.478;10.986;2022-12-19T04:54:31;35.78;;;13.93;;
70814;SDS011;58428;49.478;10.986;2022-12-19T04:56:56;34.40;;;13.48;;
70814;SDS011;58428;49.478;10.986;2022-12-19T04:59:22;36.00;;;13.57;;
70814;SDS011;58428;49.478;10.986;2022-12-19T05:01:49;33.63;;;13.57;;
70814;SDS011;58428;49.478;10.986;2022-12-19T05:04:14;39.28;;;15.25;;
70814;SDS011;58428;49.478;10.986;2022-12-19T05:06:40;33.55;;;13.57;;
70814;SDS011;58428;49.478;10.986;2022-12-19T05:11:34;32.05;;;12.65;;
70814;SDS011;58428;49.478;10.986;2022-12-19T05:14:03;34.75;;;14.50;;
70814;SDS011;58428;49.478;10.986;2022-12-19T05:16:29;33.00;;;13.10;;
70814;SDS011;58428;49.478;10.986;2022-12-19T05:18:54;32.75;;;14.75;;
70814;SDS011;58428;49.478;10.986;2022-12-19T05:21:21;38.45;;;14.77;;
70814;SDS011;58428;49.478;10.986;2022-12-19T05:23:48;37.38;;;14.38;;
70814;SDS011;58428;49.478;10.986;2022-12-19T05:26:15;40.95;;;16.02;;
70814;SDS011;58428;49.478;10.986;2022-12-19T05:28:41;36.60;;;14.10;;
70814;SDS011;58428;49.478;10.986;2022-12-19T05:31:09;39.83;;;14.55;;
70814;SDS011;58428;49.478;10.986;2022-12-19T05:33:38;35.17;;;13.43;;
70814;SDS011;58428;49.478;10.986;2022-12-19T05:36:04;38.03;;;14.32;;
70814;SDS011;58428;49.478;10.986;2022-12-19T05:38:32;39.75;;;13.68;;
70814;SDS011;58428;49.478;10.986;2022-12-19T05:40:58;41.20;;;15.32;;
70814;SDS011;58428;49.478;10.986;2022-12-19T05:43:24;39.45;;;14.75;;
70814;SDS011;58428;49.478;10.986;2022-12-19T05:45:52;39.20;;;15.23;;
70814;SDS011;58428;49.478;10.986;2022-12-19T05:48:17;39.65;;;14.80;;
70814;SDS011;58428;49.478;10.986;2022-12-19T05:50:46;36.78;;;14.73;;
70814;SDS011;58428;49.478;10.986;2022-12-19T05:53:13;37.97;;;13.93;;
70814;SDS011;58428;49.478;10.986;2022-12-19T05:55:39;35.80;;;13.20;;
70814;SDS011;58428;49.478;10.986;2022-12-19T05:58:04;38.92;;;14.65;;
70814;SDS011;58428;49.478;10.986;2022-12-19T06:00:31;35.75;;;14.77;;
70814;SDS011;58428;49.478;10.986;2022-12-19T06:02:57;38.28;;;14.43;;
70814;SDS011;58428;49.478;10.986;2022-12-19T06:05:35;38.50;;;15.35;;
70814;SDS011;58428;49.478;10.986;2022-12-19T06:08:01;36.65;;;15.38;;
70814;SDS011;58428;49.478;10.986;2022-12-19T06:10:27;39.75;;;14.93;;
70814;SDS011;58428;49.478;10.986;2022-12-19T06:12:54;38.25;;;14.68;;
70814;SDS011;58428;49.478;10.986;2022-12-19T06:15:19;37.42;;;13.35;;
70814;SDS011;58428;49.478;10.986;2022-12-19T06:17:45;41.78;;;15.43;;
70814;SDS011;58428;49.478;10.986;2022-12-19T06:20:10;39.47;;;15.05;;
70814;SDS011;58428;49.478;10.986;2022-12-19T06:22:36;34.85;;;15.10;;
70814;SDS011;58428;49.478;10.986;2022-12-19T06:25:01;39.58;;;14.48;;
70814;SDS011;58428;49.478;10.986;2022-12-19T06:27:28;37.10;;;14.95;;
70814;SDS011;58428;49.478;10.986;2022-12-19T06:29:53;39.08;;;14.80;;
70814;SDS011;58428;49.478;10.986;2022-12-19T06:32:19;41.95;;;16.35;;
70814;SDS011;58428;49.478;10.986;2022-12-19T06:34:44;37.30;;;14.30;;
70814;SDS011;58428;49.478;10.986;2022-12-19T06:37:15;39.15;;;15.13;;
70814;SDS011;58428;49.478;10.986;2022-12-19T06:39:44;37.60;;;14.35;;
70814;SDS011;58428;49.478;10.986;2022-12-19T06:42:09;37.63;;;15.07;;
70814;SDS011;58428;49.478;10.986;2022-12-19T06:44:48;38.17;;;15.10;;
70814;SDS011;58428;49.478;10.986;2022-12-19T06:47:15;41.10;;;14.57;;
70814;SDS011;58428;49.478;10.986;2022-12-19T06:49:44;40.55;;;15.82;;
70814;SDS011;58428;49.478;10.986;2022-12-19T06:52:10;40.67;;;15.07;;
70814;SDS011;58428;49.478;10.986;2022-12-19T06:54:35;38.92;;;15.50;;
70814;SDS011;58428;49.478;10.986;2022-12-19T06:57:01;38.38;;;13.75;;
70814;SDS011;58428;49.478;10.986;2022-12-19T06:59:29;36.85;;;15.05;;
70814;SDS011;58428;49.478;10.986;2022-12-19T07:04:46;40.20;;;15.07;;
70814;SDS011;58428;49.478;10.986;2022-12-19T07:07:18;45.35;;;16.25;;
70814;SDS011;58428;49.478;10.986;2022-12-19T07:09:44;42.85;;;14.88;;
70814;SDS011;58428;49.478;10.986;2022-12-19T07:12:09;45.97;;;15.85;;
70814;SDS011;58428;49.478;10.986;2022-12-19T07:14:35;43.85;;;15.52;;
70814;SDS011;58428;49.478;10.986;2022-12-19T07:17:03;37.35;;;14.38;;
70814;SDS011;58428;49.478;10.986;2022-12-19T07:19:30;37.58;;;14.55;;
70814;SDS011;58428;49.478;10.986;2022-12-19T07:21:59;41.75;;;15.35;;
70814;SDS011;58428;49.478;10.986;2022-12-19T07:24:26;41.85;;;15.40;;
70814;SDS011;58428;49.478;10.986;2022-12-19T07:26:53;41.80;;;16.15;;
70814;SDS011;58428;49.478;10.986;2022-12-19T07:29:18;45.17;;;16.27;;
70814;SDS011;58428;49.478;10.986;2022-12-19T07:31:43;41.63;;;15.88;;
70814;SDS011;58428;49.478;10.986;2022-12-19T07:34:09;43.22;;;15.63;;
70814;SDS011;58428;49.478;10.986;2022-12-19T07:36:35;40.97;;;15.90;;
70814;SDS011;58428;49.478;10.986;2022-12-19T07:39:01;43.72;;;16.85;;
70814;SDS011;58428;49.478;10.986;2022-12-19T07:41:27;42.97;;;16.20;;
70814;SDS011;58428;49.478;10.986;2022-12-19T07:43:52;43.22;;;16.88;;
70814;SDS011;58428;49.478;10.986;2022-12-19T07:46:18;44.55;;;16.55;;
70814;SDS011;58428;49.478;10.986;2022-12-19T07:48:43;42.67;;;16.08;;
70814;SDS011;58428;49.478;10.986;2022-12-19T07:51:09;41.22;;;16.75;;
70814;SDS011;58428;49.478;10.986;2022-12-19T07:53:34;45.28;;;17.00;;
70814;SDS011;58428;49.478;10.986;2022-12-19T07:56:03;42.28;;;15.18;;
70814;SDS011;58428;49.478;10.986;2022-12-19T07:58:29;41.63;;;15.65;;
70814;SDS011;58428;49.478;10.986;2022-12-19T08:00:58;40.85;;;15.95;;
70814;SDS011;58428;49.478;10.986;2022-12-19T08:03:25;41.63;;;15.23;;
70814;SDS011;58428;49.478;10.986;2022-12-19T08:05:50;42.10;;;16.55;;
70814;SDS011;58428;49.478;10.986;2022-12-19T08:08:16;42.50;;;16.27;;
70814;SDS011;58428;49.478;10.986;2022-12-19T08:10:42;40.67;;;16.48;;
70814;SDS011;58428;49.478;10.986;2022-12-19T08:13:15;41.85;;;15.20;;
70814;SDS011;58428;49.478;10.986;2022-12-19T08:15:40;39.47;;;16.38;;
70814;SDS011;58428;49.478;10.986;2022-12-19T08:18:06;40.67;;;14.55;;
70814;SDS011;58428;49.478;10.986;2022-12-19T08:20:31;41.35;;;16.30;;
70814;SDS011;58428;49.478;10.986;2022-12-19T08:22:57;37.03;;;15.35;;
70814;SDS011;58428;49.478;10.986;2022-12-19T08:25:22;40.67;;;15.90;;
70814;SDS011;58428;49.478;10.986;2022-12-19T08:30:14;42.85;;;15.27;;
70814;SDS011;58428;49.478;10.986;2022-12-19T08:32:41;47.22;;;18.20;;
70814;SDS011;58428;49.478;10.986;2022-12-19T08:35:09;38.97;;;15.38;;
70814;SDS011;58428;49.478;10.986;2022-12-19T08:37:34;45.97;;;15.90;;
70814;SDS011;58428;49.478;10.986;2022-12-19T08:40:00;41.28;;;16.70;;
70814;SDS011;58428;49.478;10.986;2022-12-19T08:42:26;42.35;;;16.33;;
70814;SDS011;58428;49.478;10.986;2022-12-19T08:47:17;37.23;;;14.97;;
70814;SDS011;58428;49.478;10.986;2022-12-19T08:49:42;41.08;;;15.95;;
70814;SDS011;58428;49.478;10.986;2022-12-19T08:52:09;39.25;;;14.52;;
70814;SDS011;58428;49.478;10.986;2022-12-19T08:54:34;38.80;;;14.98;;
70814;SDS011;58428;49.478;10.986;2022-12-19T08:57:02;38.63;;;15.75;;
70814;SDS011;58428;49.478;10.986;2022-12-19T08:59:27;37.22;;;14.18;;
70814;SDS011;58428;49.478;10.986;2022-12-19T09:01:53;37.05;;;15.48;;
70814;SDS011;58428;49.478;10.986;2022-12-19T09:04:18;41.55;;;16.05;;
70814;SDS011;58428;49.478;10.986;2022-12-19T09:06:44;39.67;;;15.53;;
70814;SDS011;58428;49.478;10.986;2022-12-19T09:09:15;40.40;;;16.20;;
70814;SDS011;58428;49.478;10.986;2022-12-19T09:11:41;39.17;;;15.77;;
70814;SDS011;58428;49.478;10.986;2022-12-19T09:14:06;39.58;;;16.92;;
70814;SDS011;58428;49.478;10.986;2022-12-19T09:16:31;40.40;;;17.13;;
70814;SDS011;58428;49.478;10.986;2022-12-19T09:18:57;42.35;;;16.55;;
70814;SDS011;58428;49.478;10.986;2022-12-19T09:21:23;40.58;;;15.27;;
70814;SDS011;58428;49.478;10.986;2022-12-19T09:23:52;38.00;;;16.00;;
70814;SDS011;58428;49.478;10.986;2022-12-19T09:26:19;42.10;;;16.50;;
70814;SDS011;58428;49.478;10.986;2022-12-19T09:28:46;41.08;;;16.23;;
70814;SDS011;58428;49.478;10.986;2022-12-19T09:31:16;43.85;;;15.38;;
70814;SDS011;58428;49.478;10.986;2022-12-19T09:33:43;45.13;;;16.55;;
70814;SDS011;58428;49.478;10.986;2022-12-19T09:36:13;40.38;;;16.77;;
70814;SDS011;58428;49.478;10.986;2022-12-19T09:38:40;37.33;;;15.90;;
70814;SDS011;58428;49.478;10.986;2022-12-19T09:49:28;41.38;;;16.95;;
70814;SDS011;58428;49.478;10.986;2022-12-19T09:52:06;43.15;;;16.80;;
70814;SDS011;58428;49.478;10.986;2022-12-19T09:54:35;42.88;;;18.08;;
70814;SDS011;58428;49.478;10.986;2022-12-19T09:57:12;42.42;;;16.63;;
70814;SDS011;58428;49.478;10.986;2022-12-19T09:59:53;39.92;;;15.85;;
70814;SDS011;58428;49.478;10.986;2022-12-19T10:02:31;41.92;;;16.67;;
70814;SDS011;58428;49.478;10.986;2022-12-19T10:05:03;38.03;;;15.57;;
70814;SDS011;58428;49.478;10.986;2022-12-19T10:07:49;41.28;;;16.73;;
70814;SDS011;58428;49.478;10.986;2022-12-19T10:10:20;39.75;;;15.95;;
70814;SDS011;58428;49.478;10.986;2022-12-19T10:18:57;41.67;;;16.50;;
70814;SDS011;58428;49.478;10.986;2022-12-19T10:24:14;38.72;;;15.65;;
70814;SDS011;58428;49.478;10.986;2022-12-19T10:26:45;41.28;;;17.52;;
70814;SDS011;58428;49.478;10.986;2022-12-19T10:34:48;44.83;;;18.02;;
70814;SDS011;58428;49.478;10.986;2022-12-19T10:37:21;44.58;;;18.23;;
70814;SDS011;58428;49.478;10.986;2022-12-19T10:42:35;36.30;;;15.35;;
70814;SDS011;58428;49.478;10.986;2022-12-19T10:45:17;41.80;;;17.48;;
70814;SDS011;58428;49.478;10.986;2022-12-19T10:47:45;42.78;;;17.33;;
70814;SDS011;58428;49.478;10.986;2022-12-19T10:50:19;41.95;;;17.23;;
70814;SDS011;58428;49.478;10.986;2022-12-19T10:55:38;45.63;;;16.20;;
70814;SDS011;58428;49.478;10.986;2022-12-19T10:58:17;43.83;;;17.40;;
70814;SDS011;58428;49.478;10.986;2022-12-19T11:01:13;40.92;;;16.55;;
70814;SDS011;58428;49.478;10.986;2022-12-19T11:03:43;39.60;;;16.38;;
70814;SDS011;58428;49.478;10.986;2022-12-19T11:09:24;41.00;;;15.85;;
70814;SDS011;58428;49.478;10.986;2022-12-19T11:11:59;42.03;;;16.83;;
70814;SDS011;58428;49.478;10.986;2022-12-19T11:14:30;36.45;;;16.60;;
70814;SDS011;58428;49.478;10.986;2022-12-19T11:16:56;42.90;;;17.50;;
70814;SDS011;58428;49.478;10.986;2022-12-19T11:19:32;39.53;;;16.90;;
70814;SDS011;58428;49.478;10.986;2022-12-19T11:22:00;37.42;;;15.63;;
70814;SDS011;58428;49.478;10.986;2022-12-19T11:24:30;34.60;;;14.98;;
70814;SDS011;58428;49.478;10.986;2022-12-19T11:27:00;38.88;;;15.95;;
70814;SDS011;58428;49.478;10.986;2022-12-19T11:29:46;39.35;;;16.25;;
70814;SDS011;58428;49.478;10.986;2022-12-19T11:32:33;42.38;;;16.30;;
70814;SDS011;58428;49.478;10.986;2022-12-19T11:35:17;37.50;;;15.80;;
70814;SDS011;58428;49.478;10.986;2022-12-19T11:40:14;41.65;;;16.88;;
70814;SDS011;58428;49.478;10.986;2022-12-19T11:42:58;39.53;;;16.92;;
70814;SDS011;58428;49.478;10.986;2022-12-19T11:56:51;34.22;;;14.85;;
70814;SDS011;58428;49.478;10.986;2022-12-19T11:59:24;33.22;;;14.98;;
70814;SDS011;58428;49.478;10.986;2022-12-19T12:13:31;38.80;;;15.63;;
70814;SDS011;58428;49.478;10.986;2022-12-19T12:16:10;35.33;;;15.48;;
70814;SDS011;58428;49.478;10.986;2022-12-19T12:18:51;39.20;;;16.42;;
70814;SDS011;58428;49.478;10.986;2022-12-19T12:21:53;35.05;;;15.27;;
70814;SDS011;58428;49.478;10.986;2022-12-19T12:24:47;36.75;;;16.52;;
70814;SDS011;58428;49.478;10.986;2022-12-19T12:30:11;32.42;;;13.93;;
70814;SDS011;58428;49.478;10.986;2022-12-19T12:35:48;37.28;;;15.27;;
70814;SDS011;58428;49.478;10.986;2022-12-19T12:46:13;38.25;;;15.40;;
70814;SDS011;58428;49.478;10.986;2022-12-19T12:48:46;34.63;;;15.38;;
70814;SDS011;58428;49.478;10.986;2022-12-19T12:51:14;34.55;;;14.15;;
70814;SDS011;58428;49.478;10.986;2022-12-19T12:56:09;33.83;;;15.05;;
70814;SDS011;58428;49.478;10.986;2022-12-19T13:01:24;33.05;;;14.68;;
70814;SDS011;58428;49.478;10.986;2022-12-19T13:09:03;40.10;;;16.70;;
70814;SDS011;58428;49.478;10.986;2022-12-19T13:11:39;41.38;;;17.50;;
70814;SDS011;58428;49.478;10.986;2022-12-19T13:17:00;64.70;;;27.35;;
70814;SDS011;58428;49.478;10.986;2022-12-19T13:19:28;42.75;;;17.63;;
70814;SDS011;58428;49.478;10.986;2022-12-19T13:45:54;35.75;;;15.60;;
70814;SDS011;58428;49.478;10.986;2022-12-19T13:50:59;32.95;;;15.15;;
70814;SDS011;58428;49.478;10.986;2022-12-19T13:53:29;29.15;;;12.73;;
70814;SDS011;58428;49.478;10.986;2022-12-19T13:56:03;33.95;;;14.05;;
70814;SDS011;58428;49.478;10.986;2022-12-19T13:58:50;32.00;;;14.07;;
70814;SDS011;58428;49.478;10.986;2022-12-19T14:01:28;34.45;;;13.57;;
70814;SDS011;58428;49.478;10.986;2022-12-19T14:03:57;33.05;;;14.18;;
70814;SDS011;58428;49.478;10.986;2022-12-19T14:06:29;33.22;;;14.02;;
70814;SDS011;58428;49.478;10.986;2022-12-19T14:09:04;34.42;;;14.35;;
70814;SDS011;58428;49.478;10.986;2022-12-19T14:11:39;30.42;;;12.50;;
70814;SDS011;58428;49.478;10.986;2022-12-19T14:14:09;33.05;;;14.30;;
70814;SDS011;58428;49.478;10.986;2022-12-19T14:17:12;32.75;;;13.45;;
70814;SDS011;58428;49.478;10.986;2022-12-19T14:19:42;30.48;;;13.40;;
70814;SDS011;58428;49.478;10.986;2022-12-19T14:22:22;35.38;;;15.05;;
70814;SDS011;58428;49.478;10.986;2022-12-19T14:24:56;32.97;;;14.82;;
70814;SDS011;58428;49.478;10.986;2022-12-19T14:27:36;33.17;;;13.48;;
70814;SDS011;58428;49.478;10.986;2022-12-19T14:30:22;30.42;;;14.35;;
70814;SDS011;58428;49.478;10.986;2022-12-19T14:32:52;33.40;;;13.93;;
70814;SDS011;58428;49.478;10.986;2022-12-19T14:35:20;31.58;;;14.25;;
70814;SDS011;58428;49.478;10.986;2022-12-19T14:37:57;32.92;;;14.38;;
70814;SDS011;58428;49.478;10.986;2022-12-19T14:40:29;31.05;;;13.38;;
70814;SDS011;58428;49.478;10.986;2022-12-19T14:42:58;33.13;;;14.18;;
70814;SDS011;58428;49.478;10.986;2022-12-19T14:45:47;34.90;;;13.57;;
70814;SDS011;58428;49.478;10.986;2022-12-19T14:53:28;33.28;;;13.63;;
70814;SDS011;58428;49.478;10.986;2022-12-19T14:58:45;36.05;;;15.30;;
70814;SDS011;58428;49.478;10.986;2022-12-19T15:01:20;34.47;;;14.55;;
70814;SDS011;58428;49.478;10.986;2022-12-19T15:03:53;31.90;;;14.60;;
70814;SDS011;58428;49.478;10.986;2022-12-19T15:06:32;32.00;;;13.18;;
70814;SDS011;58428;49.478;10.986;2022-12-19T15:09:06;32.53;;;14.90;;
70814;SDS011;58428;49.478;10.986;2022-12-19T15:11:42;33.45;;;14.65;;
70814;SDS011;58428;49.478;10.986;2022-12-19T15:14:31;35.35;;;14.43;;
70814;SDS011;58428;49.478;10.986;2022-12-19T15:17:24;34.78;;;14.90;;
70814;SDS011;58428;49.478;10.986;2022-12-19T15:19:51;30.60;;;13.82;;
70814;SDS011;58428;49.478;10.986;2022-12-19T15:22:17;32.20;;;14.10;;
70814;SDS011;58428;49.478;10.986;2022-12-19T15:24:44;34.92;;;14.95;;
70814;SDS011;58428;49.478;10.986;2022-12-19T15:27:15;32.85;;;14.07;;
70814;SDS011;58428;49.478;10.986;2022-12-19T15:29:43;37.03;;;16.42;;
70814;SDS011;58428;49.478;10.986;2022-12-19T15:32:11;36.75;;;14.82;;
70814;SDS011;58428;49.478;10.986;2022-12-19T15:34:39;34.05;;;14.75;;
70814;SDS011;58428;49.478;10.986;2022-12-19T15:37:14;35.65;;;15.40;;
70814;SDS011;58428;49.478;10.986;2022-12-19T15:39:42;32.17;;;13.82;;
70814;SDS011;58428;49.478;10.986;2022-12-19T15:42:19;31.50;;;14.35;;
70814;SDS011;58428;49.478;10.986;2022-12-19T15:44:47;32.45;;;14.38;;
70814;SDS011;58428;49.478;10.986;2022-12-19T15:47:33;31.08;;;13.32;;
70814;SDS011;58428;49.478;10.986;2022-12-19T15:50:01;30.70;;;13.70;;
70814;SDS011;58428;49.478;10.986;2022-12-19T15:52:42;32.13;;;15.15;;
70814;SDS011;58428;49.478;10.986;2022-12-19T15:55:11;36.40;;;14.63;;
70814;SDS011;58428;49.478;10.986;2022-12-19T15:57:38;46.50;;;20.42;;
70814;SDS011;58428;49.478;10.986;2022-12-19T16:00:26;34.90;;;14.15;;
70814;SDS011;58428;49.478;10.986;2022-12-19T16:02:54;36.70;;;14.43;;
70814;SDS011;58428;49.478;10.986;2022-12-19T16:05:20;35.80;;;13.85;;
70814;SDS011;58428;49.478;10.986;2022-12-19T16:07:47;32.78;;;14.48;;
70814;SDS011;58428;49.478;10.986;2022-12-19T16:10:15;32.30;;;14.25;;
70814;SDS011;58428;49.478;10.986;2022-12-19T16:12:45;35.75;;;14.82;;
70814;SDS011;58428;49.478;10.986;2022-12-19T16:15:21;32.75;;;14.45;;
70814;SDS011;58428;49.478;10.986;2022-12-19T16:20:16;29.85;;;13.00;;
70814;SDS011;58428;49.478;10.986;2022-12-19T16:22:43;33.13;;;14.20;;
70814;SDS011;58428;49.478;10.986;2022-12-19T16:25:11;48.58;;;20.50;;
70814;SDS011;58428;49.478;10.986;2022-12-19T16:27:37;36.13;;;14.45;;
70814;SDS011;58428;49.478;10.986;2022-12-19T16:30:17;35.85;;;14.80;;
70814;SDS011;58428;49.478;10.986;2022-12-19T16:32:45;33.35;;;15.10;;
70814;SDS011;58428;49.478;10.986;2022-12-19T16:35:16;33.10;;;13.85;;
70814;SDS011;58428;49.478;10.986;2022-12-19T16:37:44;30.60;;;14.00;;
70814;SDS011;58428;49.478;10.986;2022-12-19T16:40:12;31.85;;;13.85;;
70814;SDS011;58428;49.478;10.986;2022-12-19T16:42:45;35.63;;;13.57;;
70814;SDS011;58428;49.478;10.986;2022-12-19T16:47:45;30.55;;;13.30;;
70814;SDS011;58428;49.478;10.986;2022-12-19T16:52:46;31.95;;;14.43;;
70814;SDS011;58428;49.478;10.986;2022-12-19T16:55:12;35.05;;;15.00;;
70814;SDS011;58428;49.478;10.986;2022-12-19T16:57:38;37.47;;;15.55;;
70814;SDS011;58428;49.478;10.986;2022-12-19T17:00:04;37.28;;;15.68;;
70814;SDS011;58428;49.478;10.986;2022-12-19T17:02:42;33.28;;;14.90;;
70814;SDS011;58428;49.478;10.986;2022-12-19T17:05:30;34.05;;;14.85;;
70814;SDS011;58428;49.478;10.986;2022-12-19T17:07:56;39.38;;;15.25;;
70814;SDS011;58428;49.478;10.986;2022-12-19T17:10:30;34.20;;;14.57;;
70814;SDS011;58428;49.478;10.986;2022-12-19T17:12:57;41.03;;;17.52;;
70814;SDS011;58428;49.478;10.986;2022-12-19T17:15:33;36.53;;;15.00;;
70814;SDS011;58428;49.478;10.986;2022-12-19T17:18:01;38.90;;;15.35;;
70814;SDS011;58428;49.478;10.986;2022-12-19T17:20:43;34.58;;;14.82;;
70814;SDS011;58428;49.478;10.986;2022-12-19T17:23:17;34.42;;;15.05;;